Time;durP1;ratioP1;P1;durP2;ratioP2;P2;SDS_P1;SDS_P2;PMS_P1;PMS_P2;Temp;Humidity;BMP_temperature;BMP_pressure;BME280_temperature;BME280_humidity;BME280_pressure;Samples;Min_cycle;Max_cycle;Signal;HPM_P1;HPM_P2
2023/05/04 00:00:17;;;;;;;1.45;0.35;;;20.10;56.40;;;;;;5004293;28;20046;-72
2023/05/04 00:02:45;;;;;;;1.85;0.22;;;20.10;56.40;;;;;;5011457;28;20053;-72
2023/05/04 00:05:12;;;;;;;1.42;0.30;;;20.10;56.50;;;;;;5010930;28;20053;-71
2023/05/04 00:07:39;;;;;;;1.67;0.35;;;20.10;56.50;;;;;;5010654;28;20478;-72
2023/05/04 00:10:07;;;;;;;1.58;0.50;;;20.10;56.50;;;;;;5005427;28;20053;-72
2023/05/04 00:12:34;;;;;;;1.42;0.47;;;20.10;56.50;;;;;;5008388;28;20069;-72
2023/05/04 00:15:01;;;;;;;1.13;0.28;;;20.10;56.50;;;;;;5006122;28;20105;-73
2023/05/04 00:17:29;;;;;;;0.85;0.20;;;20.00;56.50;;;;;;5008295;28;20049;-73
2023/05/04 00:19:56;;;;;;;1.02;0.30;;;20.10;56.50;;;;;;4999085;28;20050;-72
2023/05/04 00:22:23;;;;;;;2.45;0.40;;;20.00;56.50;;;;;;5008755;28;20058;-72
2023/05/04 00:24:50;;;;;;;1.13;0.40;;;20.00;56.50;;;;;;5001949;28;20073;-73
2023/05/04 00:27:17;;;;;;;1.10;0.20;;;20.00;57.20;;;;;;5007495;28;20042;-72
2023/05/04 00:29:44;;;;;;;1.27;0.40;;;20.00;56.50;;;;;;5008615;28;20069;-72
2023/05/04 00:32:11;;;;;;;1.50;0.20;;;20.00;56.60;;;;;;5010153;28;20052;-73
2023/05/04 00:34:39;;;;;;;1.25;0.32;;;20.00;57.20;;;;;;4999550;28;20092;-72
2023/05/04 00:37:06;;;;;;;0.88;0.20;;;20.00;56.50;;;;;;5008583;28;20050;-72
2023/05/04 00:39:34;;;;;;;1.20;0.30;;;20.00;56.50;;;;;;5009796;28;20061;-73
2023/05/04 00:42:01;;;;;;;1.27;0.20;;;20.00;56.60;;;;;;5009945;28;20057;-72
2023/05/04 00:44:28;;;;;;;1.40;0.40;;;20.00;57.30;;;;;;5008162;28;20050;-73
2023/05/04 00:46:56;;;;;;;1.35;0.30;;;20.00;56.60;;;;;;5010104;28;20406;-72
2023/05/04 00:49:24;;;;;;;1.05;0.10;;;20.00;56.60;;;;;;5008794;28;20517;-72
2023/05/04 00:51:54;;;;;;;1.58;0.40;;;20.00;56.60;;;;;;5008976;28;20058;-72
2023/05/04 00:54:21;;;;;;;1.08;0.50;;;20.00;56.60;;;;;;5010966;28;20053;-73
2023/05/04 00:56:48;;;;;;;1.92;0.35;;;20.00;56.60;;;;;;5009865;28;20411;-72
2023/05/04 00:59:15;;;;;;;1.33;0.50;;;20.00;56.60;;;;;;5009688;28;20414;-72
2023/05/04 01:01:42;;;;;;;1.95;0.45;;;19.90;56.60;;;;;;5007075;28;20049;-73
2023/05/04 01:04:10;;;;;;;0.88;0.30;;;19.90;57.20;;;;;;5005328;28;20046;-73
2023/05/04 01:06:44;;;;;;;0.95;0.32;;;19.90;56.60;;;;;;5006137;28;20049;-72
2023/05/04 01:09:19;;;;;;;1.25;0.43;;;19.90;56.60;;;;;;5009343;28;20049;-73
2023/05/04 01:11:54;;;;;;;1.30;0.20;;;19.90;56.60;;;;;;5008846;28;20133;-72
2023/05/04 01:14:22;;;;;;;1.30;0.35;;;19.90;56.60;;;;;;5004836;28;20050;-72
2023/05/04 01:16:53;;;;;;;1.63;0.38;;;19.90;56.60;;;;;;5009222;28;20116;-72
2023/05/04 01:19:20;;;;;;;1.42;0.40;;;19.90;56.60;;;;;;5009589;28;20058;-73
2023/05/04 01:21:49;;;;;;;1.23;0.22;;;19.90;56.60;;;;;;5002045;28;20100;-73
2023/05/04 01:24:16;;;;;;;0.95;0.40;;;19.90;56.60;;;;;;5008597;28;20046;-73
2023/05/04 01:26:46;;;;;;;1.45;0.35;;;19.80;56.60;;;;;;5008709;28;20050;-73
2023/05/04 01:29:17;;;;;;;0.98;0.40;;;19.90;56.60;;;;;;5006674;28;20050;-72
2023/05/04 01:31:46;;;;;;;0.75;0.25;;;19.80;56.50;;;;;;5007837;28;20422;-73
2023/05/04 01:34:14;;;;;;;1.52;0.40;;;19.80;56.50;;;;;;5009311;28;20045;-72
2023/05/04 01:36:42;;;;;;;0.98;0.22;;;19.80;56.50;;;;;;5009042;28;20049;-72
2023/05/04 01:39:10;;;;;;;0.80;0.28;;;19.80;56.60;;;;;;5005240;28;20084;-73
2023/05/04 01:41:37;;;;;;;1.10;0.40;;;19.80;56.60;;;;;;5008046;28;20507;-72
2023/05/04 01:44:05;;;;;;;1.00;0.30;;;19.80;57.30;;;;;;5002183;28;20049;-72
2023/05/04 01:46:32;;;;;;;1.30;0.30;;;19.80;56.60;;;;;;5005721;28;20514;-73
2023/05/04 01:48:59;;;;;;;1.67;0.52;;;19.80;56.60;;;;;;5005393;28;20064;-73
2023/05/04 01:51:26;;;;;;;1.33;0.40;;;19.80;56.60;;;;;;4998994;28;20395;-73
2023/05/04 01:53:53;;;;;;;2.33;0.28;;;19.80;56.60;;;;;;5006147;28;20116;-73
2023/05/04 01:56:22;;;;;;;1.63;0.38;;;19.80;56.60;;;;;;5008963;28;20491;-73
2023/05/04 01:58:49;;;;;;;1.10;0.30;;;19.80;56.60;;;;;;5006483;28;20046;-72
2023/05/04 02:01:15;;;;;;;1.35;0.40;;;19.80;56.60;;;;;;5006621;28;20050;-72
2023/05/04 02:03:43;;;;;;;1.73;0.60;;;19.80;56.70;;;;;;5005896;28;20443;-73
2023/05/04 02:06:10;;;;;;;1.10;0.40;;;19.70;56.60;;;;;;5007314;28;20702;-72
2023/05/04 02:08:37;;;;;;;1.17;0.28;;;19.80;56.60;;;;;;5006844;28;20050;-73
2023/05/04 02:11:04;;;;;;;1.30;0.40;;;19.70;56.50;;;;;;5006283;28;20058;-73
2023/05/04 02:13:33;;;;;;;1.58;0.40;;;19.70;56.60;;;;;;5008652;28;20045;-73
2023/05/04 02:16:00;;;;;;;1.10;0.30;;;19.70;56.60;;;;;;5008007;28;20053;-73
2023/05/04 02:18:27;;;;;;;1.23;0.30;;;19.70;56.60;;;;;;5007539;28;20419;-71
2023/05/04 02:20:53;;;;;;;1.35;0.40;;;19.70;56.50;;;;;;5007462;28;20053;-73
2023/05/04 02:23:20;;;;;;;1.33;0.30;;;19.70;56.60;;;;;;4990615;28;20046;-73
2023/05/04 02:25:47;;;;;;;1.50;0.38;;;19.70;56.60;;;;;;5001957;28;20045;-72
2023/05/04 02:28:14;;;;;;;0.93;0.30;;;19.70;56.60;;;;;;5004979;28;20054;-72
2023/05/04 02:30:43;;;;;;;1.13;0.40;;;19.70;56.50;;;;;;5003152;28;20756;-73
2023/05/04 02:33:10;;;;;;;1.20;0.30;;;19.70;56.80;;;;;;5006570;28;20049;-72
2023/05/04 02:35:37;;;;;;;0.95;0.32;;;19.70;56.70;;;;;;5006629;28;20418;-73
2023/05/04 02:38:04;;;;;;;1.75;0.30;;;19.70;56.60;;;;;;5005426;28;20053;-74
2023/05/04 02:40:31;;;;;;;1.10;0.22;;;19.70;56.60;;;;;;5002410;28;20129;-73
2023/05/04 02:42:58;;;;;;;1.50;0.40;;;19.70;56.60;;;;;;5005916;28;20054;-73
2023/05/04 02:45:25;;;;;;;1.30;0.70;;;19.70;56.60;;;;;;5003473;28;20054;-73
2023/05/04 02:47:53;;;;;;;1.55;0.45;;;19.70;56.60;;;;;;5005680;28;20515;-72
2023/05/04 02:50:20;;;;;;;1.27;0.40;;;19.70;56.70;;;;;;5005544;28;20056;-73
2023/05/04 02:52:47;;;;;;;1.75;0.30;;;19.70;56.60;;;;;;5011483;28;20053;-73
2023/05/04 02:55:14;;;;;;;1.27;0.32;;;19.60;56.50;;;;;;5004481;28;20062;-73
2023/05/04 02:57:41;;;;;;;1.35;0.52;;;19.60;56.60;;;;;;5004746;28;20050;-73
2023/05/04 03:00:09;;;;;;;1.20;0.40;;;19.60;56.60;;;;;;5002871;28;20415;-73
2023/05/04 03:02:36;;;;;;;1.40;0.30;;;19.60;56.60;;;;;;5006489;28;20082;-73
2023/05/04 03:05:05;;;;;;;2.60;0.40;;;19.60;56.60;;;;;;5006460;28;20045;-73
2023/05/04 03:07:32;;;;;;;1.30;0.40;;;19.60;56.60;;;;;;5004790;28;20053;-73
2023/05/04 03:09:59;;;;;;;1.42;0.40;;;19.60;56.60;;;;;;5006788;28;20462;-72
2023/05/04 03:12:26;;;;;;;1.15;0.30;;;19.60;56.60;;;;;;5007220;28;20049;-72
2023/05/04 03:14:52;;;;;;;3.05;0.30;;;19.60;56.60;;;;;;5005030;28;20442;-73
2023/05/04 03:17:19;;;;;;;1.00;0.20;;;19.60;56.60;;;;;;5006409;28;20046;-73
2023/05/04 03:19:46;;;;;;;1.00;0.20;;;19.60;56.60;;;;;;5006885;28;20158;-73
2023/05/04 03:22:15;;;;;;;1.00;0.30;;;19.60;56.60;;;;;;5006312;28;20050;-73
2023/05/04 03:24:41;;;;;;;1.10;0.47;;;19.60;56.60;;;;;;5007221;28;20053;-73
2023/05/04 03:27:08;;;;;;;1.60;0.68;;;19.60;56.60;;;;;;5009100;28;20514;-73
2023/05/04 03:29:35;;;;;;;1.40;0.45;;;19.60;56.60;;;;;;5009990;28;20145;-72
2023/05/04 03:32:02;;;;;;;1.67;0.22;;;19.50;56.50;;;;;;5009731;28;20089;-73
2023/05/04 03:34:30;;;;;;;1.35;0.30;;;19.50;56.50;;;;;;5011135;28;20049;-73
2023/05/04 03:36:57;;;;;;;0.90;0.30;;;19.60;56.60;;;;;;5011903;28;20104;-72
2023/05/04 03:39:25;;;;;;;1.33;0.40;;;19.50;56.50;;;;;;5010252;28;20129;-73
2023/05/04 03:41:52;;;;;;;0.80;0.22;;;19.50;56.50;;;;;;5009270;28;20046;-73
2023/05/04 03:44:19;;;;;;;1.05;0.20;;;19.50;56.50;;;;;;5011120;28;20045;-72
2023/05/04 03:46:46;;;;;;;0.95;0.25;;;19.50;56.60;;;;;;5010889;28;20399;-72
2023/05/04 03:49:13;;;;;;;1.10;0.28;;;19.50;56.50;;;;;;5011198;28;20046;-73
2023/05/04 03:51:41;;;;;;;1.33;0.40;;;19.50;56.60;;;;;;5008981;28;20057;-73
2023/05/04 03:54:08;;;;;;;1.23;0.30;;;19.50;56.50;;;;;;5009588;28;20049;-72
2023/05/04 03:56:36;;;;;;;1.50;0.30;;;19.50;56.60;;;;;;5010462;28;20054;-73
2023/05/04 03:59:03;;;;;;;1.10;0.28;;;19.50;56.60;;;;;;5011458;28;20470;-73
2023/05/04 04:01:30;;;;;;;1.10;0.30;;;19.50;56.60;;;;;;5007530;28;20085;-72
2023/05/04 04:03:57;;;;;;;1.33;0.25;;;19.50;56.60;;;;;;5011422;28;20061;-73
2023/05/04 04:06:24;;;;;;;1.20;0.35;;;19.50;56.60;;;;;;5010152;28;20434;-73
2023/05/04 04:08:51;;;;;;;1.45;0.70;;;19.50;56.60;;;;;;5011183;28;20052;-72
2023/05/04 04:11:17;;;;;;;1.58;0.30;;;19.50;56.60;;;;;;4999755;28;20047;-73
2023/05/04 04:13:46;;;;;;;0.77;0.30;;;19.50;56.60;;;;;;5008924;28;20086;-72
2023/05/04 04:16:13;;;;;;;1.10;0.30;;;19.50;56.70;;;;;;5010581;28;20058;-71
2023/05/04 04:18:40;;;;;;;1.35;0.57;;;19.40;56.50;;;;;;5009734;28;20045;-72
2023/05/04 04:21:08;;;;;;;0.70;0.30;;;19.50;56.60;;;;;;5008315;28;20105;-72
2023/05/04 04:23:35;;;;;;;1.30;0.30;;;19.50;56.60;;;;;;5003704;28;20634;-72
2023/05/04 04:26:05;;;;;;;1.25;0.32;;;19.50;56.60;;;;;;5002485;28;20051;-73
2023/05/04 04:28:32;;;;;;;0.90;0.30;;;19.40;56.50;;;;;;5009947;28;20108;-72
2023/05/04 04:31:01;;;;;;;1.02;0.20;;;19.40;56.50;;;;;;5010309;28;20141;-72
2023/05/04 04:33:29;;;;;;;1.00;0.30;;;19.50;56.60;;;;;;5009582;28;20132;-73
2023/05/04 04:35:56;;;;;;;0.85;0.20;;;19.40;56.50;;;;;;5011261;28;20053;-72
2023/05/04 04:38:23;;;;;;;0.80;0.40;;;19.40;57.20;;;;;;5009386;28;20052;-72
2023/05/04 04:40:50;;;;;;;1.13;0.30;;;19.40;56.50;;;;;;5009922;28;20081;-73
2023/05/04 04:43:17;;;;;;;1.25;0.45;;;19.40;56.50;;;;;;5001608;28;20042;-72
2023/05/04 04:45:45;;;;;;;1.20;0.30;;;19.40;56.50;;;;;;5008643;28;20049;-72
2023/05/04 04:48:14;;;;;;;1.52;0.30;;;19.40;56.50;;;;;;5008875;28;20141;-72
2023/05/04 04:50:41;;;;;;;1.65;0.40;;;19.40;56.50;;;;;;4996038;28;20585;-73
2023/05/04 04:53:08;;;;;;;1.90;0.35;;;19.40;56.50;;;;;;5001159;28;20045;-72
2023/05/04 04:55:35;;;;;;;1.00;0.32;;;19.40;56.50;;;;;;5008073;28;20041;-73
2023/05/04 04:58:02;;;;;;;0.70;0.10;;;19.40;56.50;;;;;;5008246;28;20106;-72
2023/05/04 05:00:29;;;;;;;1.17;0.30;;;19.40;56.50;;;;;;5010182;28;20046;-72
2023/05/04 05:02:56;;;;;;;1.80;0.45;;;19.40;56.50;;;;;;5008118;28;20572;-73
2023/05/04 05:05:25;;;;;;;1.67;0.35;;;19.40;56.60;;;;;;5009747;28;20053;-74
2023/05/04 05:07:52;;;;;;;1.02;0.22;;;19.40;56.50;;;;;;5004656;28;20469;-72
2023/05/04 05:10:19;;;;;;;1.52;0.40;;;19.40;56.50;;;;;;5003993;28;20062;-73
2023/05/04 05:12:47;;;;;;;1.25;0.25;;;19.40;56.50;;;;;;5008920;28;20514;-72
2023/05/04 05:15:14;;;;;;;1.15;0.22;;;19.40;56.50;;;;;;5009146;28;20104;-72
2023/05/04 05:17:41;;;;;;;1.00;0.20;;;19.40;56.50;;;;;;5003695;28;20450;-73
2023/05/04 05:20:10;;;;;;;0.93;0.30;;;19.40;56.50;;;;;;5008341;28;20057;-72
2023/05/04 05:22:39;;;;;;;1.05;0.20;;;19.40;56.50;;;;;;5003137;28;20045;-73
2023/05/04 05:25:06;;;;;;;0.85;0.20;;;19.40;56.50;;;;;;5007032;28;20052;-73
2023/05/04 05:27:33;;;;;;;1.23;0.50;;;19.40;56.50;;;;;;5006980;28;20519;-73
2023/05/04 05:30:01;;;;;;;1.15;0.40;;;19.40;56.50;;;;;;5007545;28;20120;-73
2023/05/04 05:32:27;;;;;;;1.23;0.38;;;19.40;56.50;;;;;;5005499;28;20062;-72
2023/05/04 05:34:54;;;;;;;1.40;0.20;;;19.40;56.50;;;;;;5002889;28;20073;-72
2023/05/04 05:37:21;;;;;;;1.42;0.30;;;19.40;56.50;;;;;;5004574;28;20112;-72
2023/05/04 05:39:50;;;;;;;1.23;0.20;;;19.40;56.50;;;;;;5007348;28;20050;-72
2023/05/04 05:42:17;;;;;;;1.63;0.38;;;19.40;56.50;;;;;;5004361;28;20065;-73
2023/05/04 05:44:43;;;;;;;0.80;0.30;;;19.50;56.60;;;;;;5007850;28;20049;-72
2023/05/04 05:47:10;;;;;;;1.20;0.40;;;19.40;56.50;;;;;;5007167;28;20966;-73
2023/05/04 05:49:37;;;;;;;0.80;0.20;;;19.40;56.50;;;;;;4992080;28;20050;-73
2023/05/04 05:52:04;;;;;;;0.95;0.40;;;19.40;56.50;;;;;;5005391;28;20422;-72
2023/05/04 05:54:32;;;;;;;1.27;0.45;;;19.40;56.60;;;;;;4998767;28;20060;-73
2023/05/04 05:57:01;;;;;;;0.90;0.30;;;19.40;56.50;;;;;;5005517;28;20046;-72
2023/05/04 05:59:28;;;;;;;0.82;0.20;;;19.40;56.50;;;;;;5007066;28;20134;-73
2023/05/04 06:01:58;;;;;;;1.15;0.40;;;19.40;56.50;;;;;;5006402;28;20045;-74
2023/05/04 06:04:29;;;;;;;1.10;0.30;;;19.40;56.50;;;;;;5013336;28;20070;-72
2023/05/04 06:06:56;;;;;;;1.17;0.15;;;19.50;56.60;;;;;;5016831;28;20056;-74
2023/05/04 06:09:23;;;;;;;0.98;0.45;;;19.50;56.70;;;;;;5006413;28;20049;-75
2023/05/04 06:11:50;;;;;;;1.05;0.25;;;19.50;57.40;;;;;;5004171;28;20530;-74
2023/05/04 06:14:19;;;;;;;3.00;0.43;;;19.50;56.80;;;;;;5004985;28;20061;-72
2023/05/04 06:16:46;;;;;;;1.15;0.32;;;19.50;57.00;;;;;;5002368;28;20049;-79
2023/05/04 06:19:12;;;;;;;0.80;0.28;;;19.50;57.80;;;;;;4998146;28;20065;-79
2023/05/04 06:21:39;;;;;;;1.15;0.43;;;19.50;57.20;;;;;;5007815;28;20081;-74
2023/05/04 06:24:07;;;;;;;2.45;0.40;;;19.50;57.20;;;;;;5005267;28;20057;-72
2023/05/04 06:26:34;;;;;;;3.60;0.70;;;19.50;57.40;;;;;;5005139;28;20069;-72
2023/05/04 06:29:00;;;;;;;3.72;0.30;;;19.50;57.20;;;;;;4999895;28;20105;-73
2023/05/04 06:31:29;;;;;;;3.17;0.70;;;19.50;57.20;;;;;;5006644;28;20155;-73
2023/05/04 06:33:56;;;;;;;2.28;0.30;;;19.50;57.20;;;;;;5006551;28;20061;-72
2023/05/04 06:36:24;;;;;;;10.45;0.65;;;19.50;57.30;;;;;;5005157;28;20587;-72
2023/05/04 06:38:51;;;;;;;1.67;0.30;;;19.50;57.30;;;;;;5002784;28;20491;-72
2023/05/04 06:41:18;;;;;;;3.42;0.52;;;19.50;57.40;;;;;;5007625;28;20766;-72
2023/05/04 06:43:45;;;;;;;1.80;0.30;;;19.50;57.30;;;;;;5003757;28;20050;-72
2023/05/04 06:46:12;;;;;;;2.10;0.32;;;19.50;57.40;;;;;;5006688;28;20514;-73
2023/05/04 06:48:41;;;;;;;2.80;0.45;;;19.50;57.30;;;;;;5002597;28;20061;-72
2023/05/04 06:51:08;;;;;;;5.03;0.88;;;19.50;57.30;;;;;;5006536;28;20077;-73
2023/05/04 06:53:35;;;;;;;2.20;0.40;;;19.50;57.30;;;;;;5002478;28;20525;-72
2023/05/04 06:56:02;;;;;;;2.13;0.50;;;19.50;57.30;;;;;;5007524;28;20077;-72
2023/05/04 06:58:29;;;;;;;1.38;0.20;;;19.50;57.30;;;;;;5007865;28;20132;-72
2023/05/04 07:00:56;;;;;;;1.15;0.30;;;19.50;57.30;;;;;;5007800;28;20391;-72
2023/05/04 07:03:23;;;;;;;2.40;0.52;;;19.50;57.30;;;;;;5005021;28;20588;-72
2023/05/04 07:05:51;;;;;;;0.90;0.22;;;19.50;57.20;;;;;;5007272;28;20065;-72
2023/05/04 07:08:18;;;;;;;1.45;0.30;;;19.50;57.30;;;;;;5006582;28;20049;-73
2023/05/04 07:10:45;;;;;;;2.38;0.30;;;19.60;57.30;;;;;;5006040;28;20068;-73
2023/05/04 07:13:13;;;;;;;1.52;0.40;;;19.60;57.30;;;;;;5003835;28;20045;-73
2023/05/04 07:15:40;;;;;;;2.08;0.30;;;19.60;57.30;;;;;;5006759;28;20057;-72
2023/05/04 07:18:07;;;;;;;1.50;0.40;;;19.60;57.30;;;;;;5003461;28;20565;-72
2023/05/04 07:20:34;;;;;;;1.30;0.30;;;19.60;57.30;;;;;;5004816;28;20049;-72
2023/05/04 07:23:03;;;;;;;1.45;0.40;;;19.60;58.00;;;;;;5002788;28;21996;-72
2023/05/04 07:25:30;;;;;;;2.05;0.38;;;19.60;57.30;;;;;;5017236;28;20049;-72
2023/05/04 07:27:58;;;;;;;1.65;0.38;;;19.60;57.30;;;;;;5007759;28;20049;-72
2023/05/04 07:30:25;;;;;;;1.25;0.35;;;19.60;57.30;;;;;;5004044;28;20054;-72
2023/05/04 07:32:52;;;;;;;0.82;0.20;;;19.60;57.20;;;;;;5007049;28;20058;-73
2023/05/04 07:35:20;;;;;;;1.45;0.25;;;19.60;57.20;;;;;;4999589;28;20491;-73
2023/05/04 07:37:47;;;;;;;1.08;0.20;;;19.60;57.10;;;;;;5003466;28;20100;-72
2023/05/04 07:40:15;;;;;;;1.30;0.30;;;19.70;57.20;;;;;;5007036;28;20057;-73
2023/05/04 07:42:42;;;;;;;1.23;0.30;;;19.70;57.10;;;;;;5006138;28;20053;-72
2023/05/04 07:45:10;;;;;;;1.00;0.25;;;19.70;57.10;;;;;;5007098;28;20042;-72
2023/05/04 07:47:37;;;;;;;2.67;0.35;;;19.70;57.20;;;;;;5007043;28;20054;-72
2023/05/04 07:50:04;;;;;;;1.67;0.30;;;19.70;57.10;;;;;;4995894;28;20042;-72
2023/05/04 07:52:31;;;;;;;1.20;0.35;;;19.70;57.10;;;;;;5006407;28;20050;-73
2023/05/04 07:54:58;;;;;;;2.45;0.30;;;19.70;57.10;;;;;;5006341;28;20050;-71
2023/05/04 07:57:27;;;;;;;1.55;0.30;;;19.70;57.10;;;;;;5003452;28;20050;-72
2023/05/04 07:59:54;;;;;;;2.60;0.40;;;19.70;57.00;;;;;;5008017;28;20053;-72
2023/05/04 08:02:21;;;;;;;1.10;0.30;;;19.70;57.00;;;;;;5004975;28;20054;-72
2023/05/04 08:04:48;;;;;;;0.82;0.20;;;19.70;57.00;;;;;;5005083;28;21932;-73
2023/05/04 08:07:16;;;;;;;0.98;0.22;;;19.70;57.00;;;;;;5006007;28;20059;-73
2023/05/04 08:09:43;;;;;;;2.20;0.40;;;19.70;57.10;;;;;;5005790;28;20054;-72
2023/05/04 08:12:11;;;;;;;1.23;0.45;;;19.70;57.00;;;;;;5004311;28;20062;-72
2023/05/04 08:14:39;;;;;;;2.45;0.70;;;19.70;57.00;;;;;;5009744;28;20050;-72
2023/05/04 08:17:06;;;;;;;0.93;0.30;;;19.70;57.00;;;;;;5008789;28;20144;-72
2023/05/04 08:19:34;;;;;;;1.55;0.28;;;19.70;57.00;;;;;;5005347;28;20045;-72
2023/05/04 08:22:01;;;;;;;1.15;0.20;;;19.80;57.10;;;;;;5007961;28;20144;-72
2023/05/04 08:24:28;;;;;;;1.05;0.47;;;19.70;57.00;;;;;;5001132;28;20251;-72
2023/05/04 08:26:56;;;;;;;1.80;0.35;;;19.70;57.00;;;;;;5010722;28;20046;-72
2023/05/04 08:29:23;;;;;;;1.13;0.28;;;19.70;57.00;;;;;;5008724;28;20046;-73
2023/05/04 08:31:51;;;;;;;1.05;0.32;;;19.80;57.00;;;;;;5009999;28;20061;-72
2023/05/04 08:34:18;;;;;;;0.98;0.20;;;19.70;57.00;;;;;;5002868;28;20050;-72
2023/05/04 08:36:45;;;;;;;0.88;0.30;;;19.80;57.00;;;;;;5009388;28;20057;-73
2023/05/04 08:39:12;;;;;;;1.75;0.20;;;19.80;57.00;;;;;;5007200;28;20046;-73
2023/05/04 08:41:40;;;;;;;2.42;0.32;;;19.80;57.00;;;;;;5010558;28;20084;-73
2023/05/04 08:44:09;;;;;;;1.67;0.35;;;19.80;57.00;;;;;;5008707;28;20136;-71
2023/05/04 08:46:37;;;;;;;1.38;0.25;;;19.80;57.00;;;;;;5009625;28;20132;-73
2023/05/04 08:49:05;;;;;;;1.13;0.22;;;19.80;57.00;;;;;;5010496;28;20060;-72
2023/05/04 08:51:35;;;;;;;1.38;0.20;;;19.80;56.90;;;;;;5013768;28;20053;-72
2023/05/04 08:54:06;;;;;;;1.23;0.45;;;19.80;57.00;;;;;;5009978;28;20064;-72
2023/05/04 08:56:34;;;;;;;1.42;0.35;;;19.90;57.00;;;;;;5008893;28;20145;-72
2023/05/04 08:59:02;;;;;;;1.40;0.30;;;19.90;57.00;;;;;;5009130;28;20042;-73
2023/05/04 09:01:31;;;;;;;1.70;0.20;;;19.90;57.00;;;;;;5009144;28;20077;-72
2023/05/04 09:04:01;;;;;;;1.17;0.43;;;19.90;57.00;;;;;;5009055;28;20054;-72
2023/05/04 09:06:29;;;;;;;2.22;0.60;;;19.90;57.00;;;;;;5009669;28;20054;-72
2023/05/04 09:08:56;;;;;;;1.73;0.40;;;19.90;57.00;;;;;;5010192;28;20065;-72
2023/05/04 09:11:23;;;;;;;0.80;0.20;;;19.90;57.00;;;;;;5008599;28;20444;-72
2023/05/04 09:13:50;;;;;;;1.33;0.45;;;20.00;57.10;;;;;;5007481;28;20056;-73
2023/05/04 09:16:18;;;;;;;1.20;0.40;;;20.00;57.10;;;;;;5007174;28;20073;-72
2023/05/04 09:18:46;;;;;;;1.10;0.30;;;20.00;57.10;;;;;;5007655;28;20058;-72
2023/05/04 09:21:13;;;;;;;1.73;0.30;;;20.00;57.10;;;;;;5005882;28;20121;-72
2023/05/04 09:23:48;;;;;;;1.20;0.22;;;20.00;57.10;;;;;;5009701;28;20049;-72
2023/05/04 09:26:26;;;;;;;1.10;0.35;;;20.00;57.10;;;;;;5005882;28;20052;-72
2023/05/04 09:28:53;;;;;;;1.77;0.32;;;20.00;57.10;;;;;;5008077;28;20057;-72
2023/05/04 09:31:20;;;;;;;1.25;0.35;;;20.00;57.10;;;;;;5000214;28;20069;-73
2023/05/04 09:33:47;;;;;;;0.98;0.20;;;20.00;57.10;;;;;;4997332;28;20563;-72
2023/05/04 09:36:15;;;;;;;1.10;0.20;;;20.00;57.10;;;;;;5003366;28;20054;-72
2023/05/04 09:38:43;;;;;;;1.30;0.43;;;20.10;57.10;;;;;;5009459;28;20060;-72
2023/05/04 09:41:11;;;;;;;2.08;0.30;;;20.10;57.10;;;;;;5010370;28;20096;-72
2023/05/04 09:43:39;;;;;;;1.05;0.43;;;20.10;57.80;;;;;;5007493;28;20050;-72
2023/05/04 09:46:07;;;;;;;1.75;0.57;;;20.10;57.10;;;;;;5007450;28;20073;-71
2023/05/04 09:48:35;;;;;;;1.15;0.47;;;20.10;57.10;;;;;;4999350;28;20052;-72
2023/05/04 09:51:05;;;;;;;1.65;0.60;;;20.10;57.10;;;;;;5008183;28;20511;-72
2023/05/04 09:53:32;;;;;;;1.30;0.40;;;20.20;57.20;;;;;;5008249;28;20057;-72
2023/05/04 09:56:08;;;;;;;0.98;0.30;;;20.20;57.20;;;;;;5006398;28;20050;-72
2023/05/04 09:58:37;;;;;;;1.35;0.43;;;20.20;57.20;;;;;;5009575;28;20045;-72
2023/05/04 10:01:05;;;;;;;0.90;0.40;;;20.20;57.90;;;;;;5006632;28;20792;-72
2023/05/04 10:03:32;;;;;;;2.28;0.43;;;20.20;57.20;;;;;;5008243;28;20037;-72
2023/05/04 10:06:00;;;;;;;1.58;0.40;;;20.20;57.10;;;;;;5008644;28;20133;-72
2023/05/04 10:08:28;;;;;;;1.05;0.40;;;20.20;57.10;;;;;;4994767;28;20442;-72
2023/05/04 10:10:56;;;;;;;1.73;0.22;;;20.20;57.10;;;;;;5007701;28;20081;-72
2023/05/04 10:13:23;;;;;;;1.33;0.73;;;20.20;57.10;;;;;;5001703;28;20426;-80
2023/05/04 10:16:03;;;;;;;1.10;0.25;;;20.20;57.10;;;;;;5007132;28;20426;-79
2023/05/04 10:18:43;;;;;;;0.73;0.22;;;20.30;57.20;;;;;;4999623;28;20042;-78
2023/05/04 10:21:26;;;;;;;1.58;0.43;;;20.30;57.30;;;;;;5002679;28;20454;-80
2023/05/04 10:24:18;;;;;;;1.90;0.30;;;20.30;57.20;;;;;;5003506;28;20064;-79
2023/05/04 10:26:59;;;;;;;2.42;0.30;;;20.30;57.30;;;;;;5008541;28;20108;-81
2023/05/04 10:29:28;;;;;;;1.73;0.68;;;20.30;57.30;;;;;;5007626;28;20107;-81
2023/05/04 10:31:58;;;;;;;0.80;0.20;;;20.30;57.30;;;;;;5005262;28;20053;-80
2023/05/04 10:34:26;;;;;;;1.77;0.50;;;20.40;57.40;;;;;;5003714;28;20056;-80
2023/05/04 10:36:53;;;;;;;1.00;0.30;;;20.40;57.40;;;;;;5007654;28;20054;-80
2023/05/04 10:39:20;;;;;;;1.63;0.30;;;20.40;57.40;;;;;;5007680;28;20050;-79
2023/05/04 10:41:58;;;;;;;1.25;0.30;;;20.40;57.40;;;;;;5008357;28;20128;-80
2023/05/04 10:44:25;;;;;;;1.33;0.20;;;20.40;57.50;;;;;;5000436;28;20131;-80
2023/05/04 10:47:05;;;;;;;0.75;0.22;;;20.40;57.40;;;;;;5004510;28;20494;-80
2023/05/04 10:49:33;;;;;;;1.50;0.30;;;20.40;57.40;;;;;;5006785;28;20060;-79
2023/05/04 10:52:11;;;;;;;1.88;0.52;;;20.50;57.40;;;;;;5006204;28;20518;-79
2023/05/04 10:54:39;;;;;;;1.13;0.20;;;20.50;57.50;;;;;;4999808;28;20491;-79
2023/05/04 10:57:07;;;;;;;1.73;0.30;;;20.50;57.40;;;;;;5006376;28;20064;-79
2023/05/04 10:59:35;;;;;;;1.10;0.30;;;20.50;57.50;;;;;;5005981;28;20053;-79
2023/05/04 11:02:05;;;;;;;1.15;0.32;;;20.50;57.50;;;;;;5007154;28;20050;-78
2023/05/04 11:04:32;;;;;;;2.20;0.40;;;20.50;57.50;;;;;;5007299;28;20089;-74
2023/05/04 11:07:01;;;;;;;1.65;0.38;;;20.60;57.50;;;;;;5001291;28;20060;-73
2023/05/04 11:09:34;;;;;;;1.48;0.40;;;20.50;57.50;;;;;;5007048;28;20045;-81
2023/05/04 11:12:01;;;;;;;0.95;0.28;;;20.60;57.60;;;;;;5006300;28;20054;-81
2023/05/04 11:14:29;;;;;;;1.58;0.45;;;20.60;57.70;;;;;;5006863;28;20049;-83
2023/05/04 11:17:07;;;;;;;1.77;0.30;;;20.60;57.70;;;;;;5004545;28;20050;-82
2023/05/04 11:19:35;;;;;;;1.42;0.30;;;20.60;57.80;;;;;;5006601;28;20388;-80
2023/05/04 11:22:02;;;;;;;1.80;0.30;;;20.60;57.70;;;;;;5010714;28;20058;-79
2023/05/04 11:24:51;;;;;;;2.40;0.43;;;20.60;57.70;;;;;;5005381;28;20049;-79
2023/05/04 11:27:22;;;;;;;1.48;0.30;;;20.60;57.90;;;;;;5003274;28;20132;-80
2023/05/04 11:29:56;;;;;;;1.20;0.30;;;20.70;57.80;;;;;;4997476;28;20132;-73
2023/05/04 11:32:33;;;;;;;1.88;0.30;;;20.70;57.90;;;;;;5004003;28;20118;-73
2023/05/04 11:35:01;;;;;;;0.75;0.30;;;20.70;57.80;;;;;;5005672;28;20053;-73
2023/05/04 11:37:28;;;;;;;1.85;0.40;;;20.80;57.80;;;;;;5002385;28;20392;-72
2023/05/04 11:39:56;;;;;;;1.67;0.47;;;20.80;57.90;;;;;;5005381;28;20050;-73
2023/05/04 11:42:23;;;;;;;1.60;0.40;;;20.80;57.90;;;;;;5006176;28;20507;-73
2023/05/04 11:44:51;;;;;;;1.92;0.30;;;20.80;57.80;;;;;;5004063;28;20053;-73
2023/05/04 11:47:19;;;;;;;0.90;0.30;;;20.80;57.90;;;;;;5006624;28;20057;-72
2023/05/04 11:49:47;;;;;;;1.95;0.22;;;20.80;57.80;;;;;;5002597;28;20604;-73
2023/05/04 11:52:14;;;;;;;1.25;0.40;;;20.90;57.80;;;;;;5010491;28;20053;-73
2023/05/04 11:54:41;;;;;;;1.40;0.30;;;20.90;57.90;;;;;;5008183;28;20073;-73
2023/05/04 11:57:09;;;;;;;1.27;0.43;;;20.90;57.80;;;;;;5009180;28;20097;-72
2023/05/04 11:59:36;;;;;;;2.58;0.40;;;20.90;58.50;;;;;;5008873;28;20100;-73
2023/05/04 12:02:03;;;;;;;0.93;0.30;;;20.90;57.80;;;;;;5006178;28;20045;-73
2023/05/04 12:04:34;;;;;;;1.25;0.38;;;21.00;57.80;;;;;;5007493;28;20557;-73
2023/05/04 12:07:07;;;;;;;2.40;0.40;;;21.00;57.90;;;;;;5007748;28;20104;-73
2023/05/04 12:09:44;;;;;;;1.85;0.45;;;20.90;57.70;;;;;;5011509;28;20123;-73
2023/05/04 12:12:11;;;;;;;1.20;0.35;;;21.00;58.40;;;;;;5009518;28;20049;-73
2023/05/04 12:14:47;;;;;;;2.17;0.30;;;21.00;57.70;;;;;;5007526;28;20048;-73
2023/05/04 12:17:14;;;;;;;0.77;0.20;;;21.00;57.70;;;;;;5010519;28;20054;-73
2023/05/04 12:19:47;;;;;;;1.00;0.30;;;21.00;57.70;;;;;;5010189;28;20046;-73
2023/05/04 12:22:16;;;;;;;1.40;0.30;;;21.10;57.70;;;;;;5008663;28;20053;-73
2023/05/04 12:24:43;;;;;;;2.20;0.55;;;21.10;57.70;;;;;;5006217;28;20053;-73
2023/05/04 12:27:13;;;;;;;1.10;0.40;;;21.10;58.30;;;;;;5009949;28;20570;-73
2023/05/04 12:29:41;;;;;;;1.35;0.40;;;21.10;57.70;;;;;;5010549;28;20049;-72
2023/05/04 12:32:08;;;;;;;1.88;0.30;;;21.20;57.70;;;;;;5016472;28;20084;-73
2023/05/04 12:34:36;;;;;;;1.27;0.30;;;21.20;58.40;;;;;;5009756;28;20050;-73
2023/05/04 12:37:03;;;;;;;1.80;0.32;;;21.20;57.70;;;;;;5009714;28;20038;-73
2023/05/04 12:39:33;;;;;;;1.50;0.30;;;21.20;57.70;;;;;;5002241;28;20491;-73
2023/05/04 12:42:00;;;;;;;1.25;0.30;;;21.20;57.80;;;;;;5009857;28;20103;-73
2023/05/04 12:44:27;;;;;;;1.58;0.30;;;21.20;57.80;;;;;;5006613;28;20096;-73
2023/05/04 12:46:54;;;;;;;1.10;0.30;;;21.20;57.80;;;;;;5010760;28;20061;-73
2023/05/04 12:49:22;;;;;;;1.55;0.50;;;21.20;57.70;;;;;;5009098;28;20055;-73
2023/05/04 12:51:49;;;;;;;2.42;0.80;;;21.30;57.80;;;;;;5011055;28;20045;-72